Time;durP1;ratioP1;P1;durP2;ratioP2;P2;SDS_P1;SDS_P2;PMS_P1;PMS_P2;Temp;Humidity;BMP_temperature;BMP_pressure;BME280_temperature;BME280_humidity;BME280_pressure;Samples;Min_cycle;Max_cycle;Signal;HPM_P1;HPM_P2
2022/08/20 04:05:28;;;;;;;4.07;3.27;;;18.70;99.90;;;;;;5048479;23;20479;-69
2022/08/20 04:07:56;;;;;;;3.37;3.07;;;18.70;99.90;;;;;;4975578;28;20424;-72
2022/08/20 04:10:24;;;;;;;4.87;4.30;;;18.70;99.90;;;;;;4975793;28;20903;-71
2022/08/20 04:12:50;;;;;;;4.27;3.73;;;18.70;99.90;;;;;;4974679;28;20438;-72
2022/08/20 04:15:17;;;;;;;4.13;3.73;;;18.80;99.90;;;;;;4975156;28;20451;-71
2022/08/20 04:17:46;;;;;;;4.00;3.60;;;18.80;99.90;;;;;;4974846;28;20820;-72
2022/08/20 04:20:15;;;;;;;4.20;3.70;;;18.80;99.90;;;;;;4975897;28;20769;-72
2022/08/20 04:22:41;;;;;;;5.87;4.23;;;18.80;99.90;;;;;;4975204;28;20840;-71
2022/08/20 04:25:07;;;;;;;4.97;3.60;;;18.80;99.90;;;;;;4975537;28;20470;-71
2022/08/20 04:27:38;;;;;;;3.97;2.77;;;18.80;99.90;;;;;;4975544;28;20205;-72
2022/08/20 04:30:07;;;;;;;4.37;3.13;;;18.80;99.90;;;;;;4975563;28;20412;-71
2022/08/20 04:32:35;;;;;;;3.90;3.70;;;18.70;99.90;;;;;;4975242;28;20418;-70
2022/08/20 04:35:06;;;;;;;5.33;3.03;;;18.70;99.90;;;;;;4973605;28;20452;-73
2022/08/20 04:37:32;;;;;;;3.67;2.97;;;18.70;99.90;;;;;;4975564;28;20434;-71
2022/08/20 04:42:46;;;;;;;3.60;3.10;;;18.70;99.90;;;;;;4975414;28;20433;-71
2022/08/20 04:45:12;;;;;;;4.73;3.60;;;18.70;99.90;;;;;;4973771;28;20445;-70
2022/08/20 04:47:37;;;;;;;4.03;2.60;;;18.70;99.90;;;;;;4974663;28;20175;-71
2022/08/20 04:50:06;;;;;;;3.60;3.30;;;18.70;99.90;;;;;;4974710;28;20180;-71
2022/08/20 04:52:32;;;;;;;4.00;3.60;;;18.60;99.90;;;;;;4975219;28;20190;-72
2022/08/20 04:54:57;;;;;;;3.23;2.73;;;18.60;99.90;;;;;;4974763;28;20801;-71
2022/08/20 04:57:24;;;;;;;4.10;3.80;;;18.60;99.90;;;;;;4975074;28;20235;-70
2022/08/20 04:59:52;;;;;;;3.37;3.10;;;18.60;99.90;;;;;;4974745;28;20409;-72
2022/08/20 05:02:19;;;;;;;3.40;3.20;;;18.70;99.90;;;;;;4974915;28;20408;-71
2022/08/20 05:04:45;;;;;;;3.40;3.10;;;18.70;99.90;;;;;;4974219;28;20452;-71
2022/08/20 05:07:12;;;;;;;4.60;3.50;;;18.70;99.90;;;;;;4975148;28;20849;-71
2022/08/20 05:09:37;;;;;;;3.87;3.57;;;18.70;99.90;;;;;;4973853;28;20425;-70
2022/08/20 05:12:03;;;;;;;3.57;3.27;;;18.70;99.90;;;;;;4974538;28;20455;-71
2022/08/20 05:14:30;;;;;;;3.57;3.27;;;18.70;99.90;;;;;;4974194;28;20204;-70
2022/08/20 05:16:58;;;;;;;3.13;2.83;;;18.70;99.90;;;;;;4973269;28;20250;-71
2022/08/20 05:19:24;;;;;;;3.73;3.43;;;18.80;99.90;;;;;;4966495;28;20753;-71
2022/08/20 05:21:52;;;;;;;3.70;3.23;;;18.80;99.90;;;;;;4974922;28;20421;-72
2022/08/20 05:24:20;;;;;;;3.80;3.20;;;18.80;99.90;;;;;;4972347;28;20254;-71
2022/08/20 05:26:46;;;;;;;3.60;3.30;;;18.80;99.90;;;;;;4973699;28;20443;-71
2022/08/20 05:29:11;;;;;;;3.97;3.57;;;18.90;99.90;;;;;;4971721;28;20452;-69
2022/08/20 05:31:38;;;;;;;2.43;2.23;;;18.80;99.90;;;;;;4972790;28;20437;-70
2022/08/20 05:34:09;;;;;;;3.90;3.40;;;18.80;99.90;;;;;;4970896;28;20207;-71
2022/08/20 05:36:35;;;;;;;4.03;3.60;;;18.80;99.90;;;;;;4966063;28;20452;-73
2022/08/20 05:39:02;;;;;;;4.53;4.03;;;18.70;99.90;;;;;;4955290;28;21001;-68
2022/08/20 05:41:28;;;;;;;2.50;2.30;;;18.70;99.90;;;;;;4968923;28;20754;-74
2022/08/20 05:43:54;;;;;;;3.03;2.73;;;18.70;99.90;;;;;;4973443;28;20426;-75
2022/08/20 05:46:21;;;;;;;3.77;3.10;;;18.60;99.90;;;;;;4974566;28;20419;-71
2022/08/20 05:48:46;;;;;;;4.30;2.87;;;18.60;99.90;;;;;;4974594;28;20539;-72
2022/08/20 05:51:12;;;;;;;3.07;2.50;;;18.50;99.90;;;;;;4973338;28;20421;-73
2022/08/20 05:53:37;;;;;;;4.40;4.00;;;18.50;99.90;;;;;;4973952;28;20211;-73
2022/08/20 05:56:03;;;;;;;3.30;3.00;;;18.60;99.90;;;;;;4974317;28;20649;-70
2022/08/20 05:58:31;;;;;;;3.80;2.60;;;18.60;99.90;;;;;;4975085;28;20277;-70
2022/08/20 06:00:58;;;;;;;2.90;2.70;;;18.60;99.90;;;;;;4978488;28;20196;-72
2022/08/20 06:06:08;;;;;;;3.70;3.40;;;18.50;99.90;;;;;;4973744;28;20474;-69
2022/08/20 06:08:34;;;;;;;3.80;3.50;;;18.50;99.90;;;;;;4973147;28;20402;-68
2022/08/20 06:10:59;;;;;;;4.23;3.80;;;18.50;99.90;;;;;;4972837;28;20404;-71
2022/08/20 06:13:26;;;;;;;3.87;3.40;;;18.50;99.90;;;;;;4972615;28;20199;-70
2022/08/20 06:15:52;;;;;;;4.33;3.33;;;18.50;99.90;;;;;;4972745;28;20187;-72
2022/08/20 06:18:17;;;;;;;3.90;3.47;;;18.50;99.90;;;;;;4973753;28;20940;-69
2022/08/20 06:20:44;;;;;;;3.10;2.80;;;18.40;99.90;;;;;;4974090;28;20714;-71
2022/08/20 06:23:10;;;;;;;4.30;3.90;;;18.50;99.90;;;;;;4971929;28;20427;-73
2022/08/20 06:25:36;;;;;;;3.77;3.50;;;18.60;99.90;;;;;;4972687;28;20929;-75
2022/08/20 06:28:02;;;;;;;3.23;2.93;;;18.60;99.90;;;;;;4974008;28;20184;-71
2022/08/20 06:30:28;;;;;;;3.93;3.53;;;18.70;99.90;;;;;;4972858;28;20177;-70
2022/08/20 06:32:54;;;;;;;7.20;4.13;;;18.80;99.90;;;;;;4971621;28;20436;-71
2022/08/20 06:35:20;;;;;;;16.43;3.50;;;18.90;99.90;;;;;;4973502;28;21024;-70
2022/08/20 06:37:46;;;;;;;5.10;4.50;;;19.10;99.90;;;;;;4977362;28;20211;-70
2022/08/20 06:40:18;;;;;;;4.53;2.83;;;19.20;99.90;;;;;;4977386;28;20180;-72
2022/08/20 06:42:44;;;;;;;3.07;2.77;;;19.50;99.90;;;;;;4977150;28;20830;-74
2022/08/20 06:45:16;;;;;;;3.20;2.70;;;19.70;99.90;;;;;;4977140;28;20410;-72
2022/08/20 06:47:44;;;;;;;3.77;3.23;;;19.80;99.90;;;;;;4973902;28;20439;-73
2022/08/20 06:50:16;;;;;;;2.60;2.40;;;20.00;99.90;;;;;;4976919;28;20427;-72
2022/08/20 06:52:42;;;;;;;3.10;2.60;;;20.10;99.90;;;;;;4976695;28;20774;-76
2022/08/20 06:55:09;;;;;;;2.80;2.60;;;20.20;99.90;;;;;;4977292;28;20439;-72
2022/08/20 06:57:36;;;;;;;2.70;2.50;;;20.30;99.90;;;;;;4977099;28;20471;-71
2022/08/20 07:00:08;;;;;;;2.90;2.70;;;20.40;99.90;;;;;;4977516;28;20415;-70
2022/08/20 07:02:35;;;;;;;2.90;2.70;;;20.50;99.90;;;;;;4976470;28;20433;-72
2022/08/20 07:05:01;;;;;;;2.50;2.20;;;20.60;99.90;;;;;;4977103;28;20450;-71
2022/08/20 07:07:27;;;;;;;2.43;2.23;;;20.60;99.90;;;;;;4976994;28;20782;-71
2022/08/20 07:10:08;;;;;;;3.27;2.97;;;20.70;99.90;;;;;;4976440;28;20408;-69
2022/08/20 07:12:35;;;;;;;3.13;2.90;;;20.80;99.90;;;;;;4976566;28;20188;-69
2022/08/20 07:15:04;;;;;;;2.90;2.70;;;20.90;99.90;;;;;;4976946;28;20445;-71
2022/08/20 07:17:30;;;;;;;3.23;3.03;;;21.00;99.90;;;;;;4976592;28;20430;-67
2022/08/20 07:19:56;;;;;;;3.03;2.73;;;21.10;99.90;;;;;;4976889;28;20415;-70
2022/08/20 07:22:22;;;;;;;2.73;2.60;;;21.20;99.90;;;;;;4975852;28;20185;-69
2022/08/20 07:24:48;;;;;;;3.40;3.10;;;21.30;99.90;;;;;;4976831;28;20188;-70
2022/08/20 07:27:14;;;;;;;2.63;2.43;;;21.40;99.90;;;;;;4976645;28;20539;-68
2022/08/20 07:32:36;;;;;;;3.17;2.90;;;21.60;99.90;;;;;;4974968;28;20417;-69
2022/08/20 07:35:08;;;;;;;3.40;2.90;;;21.60;99.90;;;;;;4976709;28;20515;-69
2022/08/20 07:37:40;;;;;;;3.73;3.30;;;21.50;99.90;;;;;;4976546;28;20488;-68
2022/08/20 07:40:07;;;;;;;3.17;2.87;;;21.40;99.90;;;;;;4976700;28;20741;-68
2022/08/20 07:42:33;;;;;;;3.53;3.23;;;21.40;99.90;;;;;;4975975;28;20405;-69
2022/08/20 07:44:59;;;;;;;2.97;2.77;;;21.30;99.90;;;;;;4976457;28;20447;-66
2022/08/20 07:47:24;;;;;;;2.67;2.40;;;21.20;99.90;;;;;;4974879;28;20409;-68
2022/08/20 07:49:50;;;;;;;3.20;2.83;;;21.10;99.90;;;;;;4976261;28;20215;-68
2022/08/20 07:52:15;;;;;;;2.67;2.30;;;21.10;99.90;;;;;;4975637;28;20247;-68
2022/08/20 07:54:42;;;;;;;2.80;2.60;;;21.10;99.90;;;;;;4975036;28;20744;-67
2022/08/20 07:57:10;;;;;;;2.77;2.57;;;21.10;99.90;;;;;;4975025;28;20212;-68
2022/08/20 07:59:37;;;;;;;3.20;2.90;;;21.20;99.90;;;;;;4976414;28;20436;-67
2022/08/20 08:02:03;;;;;;;3.53;3.23;;;21.30;99.90;;;;;;4975411;28;20414;-66
2022/08/20 08:04:29;;;;;;;4.83;3.43;;;21.40;99.90;;;;;;4975414;28;20457;-67
